createdAt,value
2018-05-27T00:01:10.403Z,7.27
2018-05-27T00:03:38.372Z,7.53
2018-05-27T00:06:06.340Z,7.23
2018-05-27T00:08:34.208Z,7.20
2018-05-27T00:11:01.970Z,7.43
2018-05-27T00:13:29.838Z,7.17
2018-05-27T00:15:57.556Z,7.17
2018-05-27T00:18:25.367Z,7.00
2018-05-27T00:20:53.130Z,7.60
2018-05-27T00:23:20.896Z,6.73
2018-05-27T00:25:48.599Z,7.10
2018-05-27T00:28:16.321Z,6.80
2018-05-27T00:30:44.858Z,7.03
2018-05-27T00:33:12.670Z,6.60
2018-05-27T00:35:40.539Z,7.10
2018-05-27T00:38:08.198Z,6.87
2018-05-27T00:40:35.859Z,6.97
2018-05-27T00:43:03.568Z,6.90
2018-05-27T00:45:31.385Z,7.60
2018-05-27T00:47:59.154Z,7.53
2018-05-27T00:50:27.022Z,7.50
2018-05-27T00:52:54.786Z,7.47
2018-05-27T00:55:22.501Z,7.00
2018-05-27T00:57:50.320Z,7.00
2018-05-27T01:00:17.977Z,6.80
2018-05-27T01:02:45.746Z,6.40
2018-05-27T01:05:13.509Z,6.67
2018-05-27T01:07:41.212Z,6.90
2018-05-27T01:10:09.035Z,6.47
2018-05-27T01:12:36.799Z,6.10
2018-05-27T01:15:04.564Z,6.40
2018-05-27T01:17:32.279Z,6.57
2018-05-27T01:20:00.095Z,6.73
2018-05-27T01:22:27.819Z,8.23
2018-05-27T01:24:55.520Z,7.90
2018-05-27T01:27:23.284Z,7.60
2018-05-27T01:29:50.945Z,7.50
2018-05-27T01:32:18.656Z,7.47
2018-05-27T01:34:46.580Z,7.40
2018-05-27T01:37:14.346Z,6.30
2018-05-27T01:39:42.108Z,6.87
2018-05-27T01:42:09.827Z,6.90
2018-05-27T01:44:37.593Z,6.73
2018-05-27T01:47:05.401Z,7.37
2018-05-27T01:49:33.181Z,6.37
2018-05-27T01:52:01.040Z,6.90
2018-05-27T01:54:28.858Z,6.43
2018-05-27T01:56:56.673Z,6.73
2018-05-27T01:59:24.494Z,6.70
2018-05-27T02:01:52.301Z,7.00
2018-05-27T02:04:20.004Z,6.60
2018-05-27T02:06:47.824Z,7.73
2018-05-27T02:09:15.583Z,7.20
2018-05-27T02:11:43.304Z,6.60
2018-05-27T02:14:11.122Z,7.40
2018-05-27T02:16:38.837Z,7.40
2018-05-27T02:19:06.648Z,7.87
2018-05-27T02:21:34.413Z,7.77
2018-05-27T02:24:02.281Z,7.20
2018-05-27T02:26:30.007Z,7.50
2018-05-27T02:28:57.747Z,7.83
2018-05-27T02:31:25.373Z,6.80
2018-05-27T02:33:53.081Z,7.50
2018-05-27T02:36:20.792Z,6.63
2018-05-27T02:38:48.446Z,7.80
2018-05-27T02:41:16.182Z,7.70
2018-05-27T02:43:43.925Z,6.73
2018-05-27T02:46:11.742Z,7.50
2018-05-27T02:48:39.515Z,7.30
2018-05-27T02:51:07.171Z,6.40
2018-05-27T02:53:34.943Z,6.60
2018-05-27T02:56:02.812Z,7.70
2018-05-27T02:58:30.677Z,7.70
2018-05-27T03:00:58.439Z,7.40
2018-05-27T03:03:26.204Z,8.20
2018-05-27T03:05:53.927Z,7.60
2018-05-27T03:08:21.630Z,7.70
2018-05-27T03:10:49.386Z,7.23
2018-05-27T03:13:17.165Z,7.30
2018-05-27T03:15:44.928Z,6.80
2018-05-27T03:18:12.686Z,7.20
2018-05-27T03:20:40.453Z,7.90
2018-05-27T03:23:08.217Z,7.60
2018-05-27T03:25:35.981Z,7.97
2018-05-27T03:28:03.747Z,8.30
2018-05-27T03:30:31.471Z,7.50
2018-05-27T03:32:59.277Z,7.70
2018-05-27T03:35:27.041Z,7.33
2018-05-27T03:37:54.811Z,7.07
2018-05-27T03:40:22.665Z,7.37
2018-05-27T03:42:50.436Z,7.30
2018-05-27T03:45:18.303Z,9.90
2018-05-27T03:47:46.068Z,8.00
2018-05-27T03:50:13.847Z,7.30
2018-05-27T03:52:41.492Z,7.50
2018-05-27T03:55:09.217Z,8.00
2018-05-27T03:57:37.026Z,7.60
2018-05-27T04:00:04.725Z,7.90
2018-05-27T04:02:32.553Z,8.47
2018-05-27T04:05:12.196Z,8.23
2018-05-27T04:07:51.940Z,8.00
2018-05-27T04:10:19.705Z,7.37
2018-05-27T04:12:47.473Z,8.17
2018-05-27T04:15:15.200Z,8.33
2018-05-27T04:17:42.998Z,8.27
2018-05-27T04:20:10.712Z,8.10
2018-05-27T04:22:38.427Z,7.80
2018-05-27T04:25:06.190Z,7.63
2018-05-27T04:27:33.954Z,8.40
2018-05-27T04:30:01.623Z,8.37
2018-05-27T04:32:29.278Z,7.43
2018-05-27T04:34:57.042Z,7.90
2018-05-27T04:37:24.809Z,8.23
2018-05-27T04:39:52.545Z,7.23
2018-05-27T04:42:20.234Z,8.00
2018-05-27T04:44:47.990Z,7.80
2018-05-27T04:47:15.721Z,7.67
2018-05-27T04:49:43.425Z,7.67
2018-05-27T04:52:11.087Z,8.07
2018-05-27T04:54:38.852Z,8.20
2018-05-27T04:57:06.620Z,8.10
2018-05-27T04:59:34.277Z,7.93
2018-05-27T05:02:02.044Z,7.10
2018-05-27T05:04:29.809Z,7.47
2018-05-27T05:06:57.675Z,8.10
2018-05-27T05:09:25.413Z,7.57
2018-05-27T05:11:53.204Z,7.40
2018-05-27T05:14:20.907Z,7.17
2018-05-27T05:16:48.630Z,7.40
2018-05-27T05:19:16.392Z,7.03
2018-05-27T05:21:44.160Z,7.80
2018-05-27T05:24:11.821Z,6.67
2018-05-27T05:26:39.587Z,7.10
2018-05-27T05:29:07.310Z,7.23
2018-05-27T05:31:35.116Z,6.70
2018-05-27T05:34:02.819Z,8.10
2018-05-27T05:36:30.636Z,6.90
2018-05-27T05:38:58.353Z,7.63
2018-05-27T05:41:26.379Z,6.80
2018-05-27T05:43:54.147Z,6.80
2018-05-27T05:46:21.909Z,6.43
2018-05-27T05:48:49.673Z,6.20
2018-05-27T05:51:17.545Z,6.90
2018-05-27T05:53:45.305Z,6.90
2018-05-27T05:56:13.123Z,6.87
2018-05-27T05:58:40.939Z,6.63
2018-05-27T06:01:08.710Z,6.83
2018-05-27T06:03:36.357Z,7.30
2018-05-27T06:06:04.128Z,6.87
2018-05-27T06:08:31.891Z,7.00
2018-05-27T06:10:59.758Z,7.63
2018-05-27T06:13:27.469Z,6.70
2018-05-27T06:15:55.289Z,6.80
2018-05-27T06:18:22.949Z,7.10
2018-05-27T06:20:50.668Z,7.23
2018-05-27T06:23:18.481Z,6.80
2018-05-27T06:25:46.223Z,6.63
2018-05-27T06:28:14.008Z,6.07
2018-05-27T06:30:41.671Z,6.23
2018-05-27T06:33:09.537Z,6.23
2018-05-27T06:35:37.245Z,6.03
2018-05-27T06:38:04.963Z,6.57
2018-05-27T06:40:32.680Z,7.10
2018-05-27T06:43:00.391Z,7.37
2018-05-27T06:45:28.059Z,7.30
2018-05-27T06:47:55.919Z,6.60
2018-05-27T06:50:23.622Z,7.17
2018-05-27T06:52:51.344Z,6.70
2018-05-27T06:55:19.111Z,6.40
2018-05-27T06:57:46.824Z,6.57
2018-05-27T07:00:14.536Z,6.70
2018-05-27T07:02:42.198Z,7.67
2018-05-27T07:05:09.965Z,6.30
2018-05-27T07:07:37.832Z,6.93
2018-05-27T07:10:05.585Z,7.07
2018-05-27T07:12:33.360Z,7.33
2018-05-27T07:15:01.021Z,6.50
2018-05-27T07:17:28.785Z,6.80
2018-05-27T07:19:56.551Z,7.13
2018-05-27T07:22:24.423Z,7.03
2018-05-27T07:24:52.081Z,6.73
2018-05-27T07:27:19.805Z,7.37
2018-05-27T07:29:47.499Z,6.77
2018-05-27T07:32:15.294Z,7.93
2018-05-27T07:34:43.137Z,7.40
2018-05-27T07:37:10.904Z,8.47
2018-05-27T07:39:38.665Z,7.30
2018-05-27T07:42:06.341Z,7.73
2018-05-27T07:44:34.196Z,7.43
2018-05-27T07:47:01.961Z,7.30
2018-05-27T07:49:29.684Z,7.10
2018-05-27T07:51:57.489Z,7.43
2018-05-27T07:54:25.356Z,5.30
2018-05-27T07:56:53.121Z,6.73
2018-05-27T07:59:20.783Z,7.07
2018-05-27T08:01:48.547Z,7.17
2018-05-27T08:04:16.312Z,6.10
2018-05-27T08:06:44.081Z,6.50
2018-05-27T08:09:11.973Z,6.73
2018-05-27T08:11:39.665Z,6.43
2018-05-27T08:14:07.473Z,6.10
2018-05-27T08:16:35.239Z,7.20
2018-05-27T08:19:03.106Z,6.50
2018-05-27T08:21:30.971Z,6.43
2018-05-27T08:23:58.737Z,6.70
2018-05-27T08:26:26.604Z,6.80
2018-05-27T08:28:54.310Z,7.20
2018-05-27T08:31:22.134Z,7.63
2018-05-27T08:33:49.899Z,7.63
2018-05-27T08:36:17.770Z,7.27
2018-05-27T08:38:45.476Z,6.80
2018-05-27T08:41:13.299Z,7.37
2018-05-27T08:43:40.957Z,6.70
2018-05-27T08:46:08.722Z,7.90
2018-05-27T08:48:36.485Z,7.10
2018-05-27T08:51:04.250Z,6.97
2018-05-27T08:53:32.114Z,7.00
2018-05-27T08:55:59.799Z,6.90
2018-05-27T08:58:27.544Z,6.57
2018-05-27T09:00:55.305Z,8.00
2018-05-27T09:03:23.070Z,7.40
2018-05-27T09:05:50.892Z,8.40
2018-05-27T09:08:18.701Z,8.10
2018-05-27T09:10:46.527Z,7.80
2018-05-27T09:13:14.332Z,7.30
2018-05-27T09:15:42.100Z,7.33
2018-05-27T09:18:09.804Z,7.20
2018-05-27T09:20:37.626Z,7.93
2018-05-27T09:23:05.391Z,7.90
2018-05-27T09:25:33.258Z,7.20
2018-05-27T09:28:00.919Z,7.27
2018-05-27T09:30:28.581Z,6.60
2018-05-27T09:32:56.242Z,7.33
2018-05-27T09:35:23.906Z,6.50
2018-05-27T09:37:51.619Z,8.00
2018-05-27T09:40:19.435Z,6.50
2018-05-27T09:42:47.203Z,7.20
2018-05-27T09:45:15.031Z,7.37
2018-05-27T09:47:42.832Z,7.40
2018-05-27T09:50:10.698Z,7.17
2018-05-27T09:52:38.463Z,6.83
2018-05-27T09:55:06.188Z,6.67
2018-05-27T09:57:33.890Z,7.30
2018-05-27T10:00:01.660Z,7.17
2018-05-27T10:02:29.419Z,7.00
2018-05-27T10:04:57.184Z,6.30
2018-05-27T10:07:24.948Z,6.83
2018-05-27T10:09:52.755Z,7.10
2018-05-27T10:12:20.580Z,6.27
2018-05-27T10:14:48.344Z,6.60
2018-05-27T10:17:16.069Z,6.60
2018-05-27T10:19:43.874Z,6.13
2018-05-27T10:22:11.728Z,6.73
2018-05-27T10:24:39.403Z,6.80
2018-05-27T10:27:07.175Z,6.43
2018-05-27T10:29:34.829Z,6.47
2018-05-27T10:32:02.490Z,6.30
2018-05-27T10:34:30.257Z,6.53
2018-05-27T10:36:57.984Z,6.10
2018-05-27T10:39:25.682Z,6.60
2018-05-27T10:41:53.396Z,6.20
2018-05-27T10:44:21.160Z,5.77
2018-05-27T10:46:48.876Z,5.93
2018-05-27T10:49:16.639Z,6.50
2018-05-27T10:51:44.290Z,6.10
2018-05-27T10:54:11.963Z,5.80
2018-05-27T10:56:39.931Z,5.57
2018-05-27T10:59:07.594Z,5.50
2018-05-27T11:01:35.349Z,5.60
2018-05-27T11:04:03.123Z,5.60
2018-05-27T11:06:30.891Z,5.47
2018-05-27T11:08:58.652Z,5.57
2018-05-27T11:11:26.376Z,5.63
2018-05-27T11:13:54.070Z,5.67
2018-05-27T11:16:22.275Z,5.07
2018-05-27T11:18:50.045Z,5.70
2018-05-27T11:21:17.990Z,6.20
2018-05-27T11:23:45.713Z,5.77
2018-05-27T11:26:13.518Z,5.17
2018-05-27T11:28:41.388Z,5.23
2018-05-27T11:31:09.114Z,5.70
2018-05-27T11:33:36.859Z,6.50
2018-05-27T11:36:04.679Z,5.80
2018-05-27T11:38:32.441Z,7.20
2018-05-27T11:41:00.103Z,6.33
2018-05-27T11:43:27.824Z,5.30
2018-05-27T11:45:55.632Z,6.00
2018-05-27T11:48:23.459Z,5.70
2018-05-27T11:50:51.265Z,5.30
2018-05-27T11:53:19.022Z,5.60
2018-05-27T11:55:46.737Z,5.10
2018-05-27T11:58:14.454Z,5.70
2018-05-27T12:00:42.173Z,5.90
2018-05-27T12:03:09.985Z,5.13
2018-05-27T12:05:37.748Z,5.57
2018-05-27T12:08:05.614Z,5.60
2018-05-27T12:10:33.379Z,5.33
2018-05-27T12:13:01.042Z,5.43
2018-05-27T12:15:28.750Z,5.30
2018-05-27T12:17:56.571Z,5.40
2018-05-27T12:20:24.310Z,5.67
2018-05-27T12:22:52.101Z,5.67
2018-05-27T12:25:19.763Z,5.57
2018-05-27T12:27:47.626Z,5.67
2018-05-27T12:30:15.282Z,6.00
2018-05-27T12:32:43.055Z,4.73
2018-05-27T12:35:10.923Z,5.10
2018-05-27T12:37:38.789Z,5.10
2018-05-27T12:40:06.499Z,5.60
2018-05-27T12:42:34.318Z,5.20
2018-05-27T12:45:02.035Z,5.60
2018-05-27T12:47:29.849Z,4.80
2018-05-27T12:49:57.459Z,5.20
2018-05-27T12:52:25.142Z,4.90
2018-05-27T12:54:52.832Z,5.40
2018-05-27T12:57:20.548Z,6.40
2018-05-27T12:59:48.365Z,5.63
2018-05-27T13:02:16.231Z,6.27
2018-05-27T13:04:44.099Z,5.60
2018-05-27T13:07:12.680Z,5.47
2018-05-27T13:09:40.445Z,5.60
2018-05-27T13:12:08.148Z,4.90
2018-05-27T13:14:35.872Z,5.73
2018-05-27T13:17:03.793Z,5.57
2018-05-27T13:19:31.398Z,4.97
2018-05-27T13:21:59.180Z,4.80
2018-05-27T13:24:26.931Z,4.93
2018-05-27T13:26:55.002Z,5.03
2018-05-27T13:29:22.767Z,5.30
2018-05-27T13:31:50.589Z,5.80
2018-05-27T13:34:18.398Z,5.13
2018-05-27T13:36:46.161Z,4.70
2018-05-27T13:39:13.928Z,4.80
2018-05-27T13:41:41.635Z,5.50
2018-05-27T13:44:09.450Z,4.90
2018-05-27T13:46:37.168Z,5.50
2018-05-27T13:49:04.984Z,5.07
2018-05-27T13:51:32.751Z,4.73
2018-05-27T13:54:00.469Z,5.00
2018-05-27T13:56:28.282Z,4.40
2018-05-27T13:58:57.068Z,4.70
2018-05-27T14:01:24.936Z,4.80
2018-05-27T14:03:52.808Z,4.70
2018-05-27T14:06:20.505Z,5.10
2018-05-27T14:08:48.229Z,4.80
2018-05-27T14:11:15.941Z,4.70
2018-05-27T14:13:43.759Z,4.50
2018-05-27T14:16:11.475Z,3.97
2018-05-27T14:18:39.287Z,4.23
2018-05-27T14:21:07.011Z,3.90
2018-05-27T14:23:34.816Z,4.57
2018-05-27T14:26:02.477Z,5.23
2018-05-27T14:28:30.286Z,4.30
2018-05-27T14:30:58.056Z,4.20
2018-05-27T14:33:25.872Z,4.47
2018-05-27T14:35:53.589Z,4.17
2018-05-27T14:38:21.404Z,4.57
2018-05-27T14:40:49.170Z,4.10
2018-05-27T14:43:16.817Z,5.30
2018-05-27T14:45:44.594Z,5.00
2018-05-27T14:48:12.255Z,4.70
2018-05-27T14:50:40.189Z,5.20
2018-05-27T14:53:08.502Z,5.20
2018-05-27T14:55:36.371Z,4.30
2018-05-27T14:58:04.066Z,4.83
2018-05-27T15:00:31.761Z,3.50
2018-05-27T15:02:59.552Z,3.83
2018-05-27T15:05:27.325Z,4.53
2018-05-27T15:07:55.089Z,4.10
2018-05-27T15:10:22.957Z,4.20
2018-05-27T15:12:50.679Z,4.47
2018-05-27T15:15:18.383Z,3.93
2018-05-27T15:17:46.454Z,3.97
2018-05-27T15:20:14.220Z,4.00
2018-05-27T15:22:42.044Z,3.80
2018-05-27T15:25:10.070Z,4.63
2018-05-27T15:27:37.819Z,3.70
2018-05-27T15:30:05.482Z,4.60
2018-05-27T15:32:33.348Z,4.30
2018-05-27T15:35:01.079Z,4.53
2018-05-27T15:37:28.878Z,3.63
2018-05-27T15:39:56.541Z,4.00
2018-05-27T15:42:24.202Z,4.33
2018-05-27T15:44:51.968Z,3.80
2018-05-27T15:47:19.737Z,4.50
2018-05-27T15:49:47.395Z,5.40
2018-05-27T15:52:15.158Z,7.13
2018-05-27T15:54:42.923Z,10.87
2018-05-27T15:57:10.687Z,9.77
2018-05-27T15:59:38.402Z,7.47
2018-05-27T16:02:06.114Z,7.43
2018-05-27T16:04:33.774Z,7.80
2018-05-27T16:07:01.541Z,5.73
2018-05-27T16:09:29.407Z,5.73
2018-05-27T16:11:57.110Z,5.47
2018-05-27T16:14:25.027Z,6.00
2018-05-27T16:16:52.747Z,6.67
2018-05-27T16:19:20.568Z,5.20
2018-05-27T16:21:48.435Z,5.77
2018-05-27T16:24:16.201Z,5.40
2018-05-27T16:26:43.861Z,5.37
2018-05-27T16:29:11.627Z,4.90
2018-05-27T16:31:39.391Z,5.30
2018-05-27T16:34:07.156Z,5.50
2018-05-27T16:36:34.882Z,5.50
2018-05-27T16:39:02.790Z,6.00
2018-05-27T16:41:30.654Z,5.87
2018-05-27T16:43:58.418Z,5.33
2018-05-27T16:46:26.183Z,6.17
2018-05-27T16:48:53.892Z,6.43
2018-05-27T16:51:21.712Z,6.80
2018-05-27T16:53:49.465Z,6.00
2018-05-27T16:56:17.193Z,5.97
2018-05-27T16:58:44.958Z,6.83
2018-05-27T17:01:12.772Z,6.43
2018-05-27T17:03:40.638Z,7.13
2018-05-27T17:06:08.365Z,7.00
2018-05-27T17:08:36.575Z,6.80
2018-05-27T17:11:04.341Z,6.20
2018-05-27T17:13:32.162Z,7.10
2018-05-27T17:15:59.972Z,7.13
2018-05-27T17:18:27.697Z,6.37
2018-05-27T17:20:55.503Z,6.27
2018-05-27T17:23:23.376Z,5.57
2018-05-27T17:25:51.206Z,6.53
2018-05-27T17:28:19.825Z,5.70
2018-05-27T17:30:47.662Z,6.53
2018-05-27T17:33:15.338Z,6.80
2018-05-27T17:35:43.112Z,7.00
2018-05-27T17:38:10.983Z,7.00
2018-05-27T17:40:38.701Z,5.37
2018-05-27T17:43:06.508Z,6.40
2018-05-27T17:45:34.236Z,6.33
2018-05-27T17:48:14.020Z,6.80
2018-05-27T17:50:41.783Z,6.50
2018-05-27T17:53:09.550Z,7.37
2018-05-27T17:55:37.278Z,7.03
2018-05-27T17:58:04.977Z,7.17
2018-05-27T18:00:32.634Z,6.77
2018-05-27T18:03:00.300Z,6.80
2018-05-27T18:05:28.063Z,6.60
2018-05-27T18:07:57.571Z,6.60
2018-05-27T18:10:25.332Z,6.00
2018-05-27T18:12:53.100Z,5.80
2018-05-27T18:15:20.760Z,5.60
2018-05-27T18:17:48.481Z,5.90
2018-05-27T18:20:16.186Z,6.30
2018-05-27T18:22:43.805Z,5.70
2018-05-27T18:25:11.509Z,5.93
2018-05-27T18:27:39.274Z,5.50
2018-05-27T18:30:06.992Z,5.30
2018-05-27T18:32:34.906Z,5.03
2018-05-27T18:35:02.627Z,5.80
2018-05-27T18:37:30.330Z,5.13
2018-05-27T18:39:57.993Z,5.70
2018-05-27T18:42:25.657Z,5.60
2018-05-27T18:44:53.318Z,5.57
2018-05-27T18:47:21.398Z,5.30
2018-05-27T18:49:49.258Z,5.60
2018-05-27T18:52:16.968Z,5.47
2018-05-27T18:54:44.784Z,5.40
2018-05-27T18:57:12.769Z,5.70
2018-05-27T18:59:40.829Z,6.07
2018-05-27T19:02:08.491Z,5.47
2018-05-27T19:04:36.357Z,5.73
2018-05-27T19:07:04.020Z,6.10
2018-05-27T19:09:31.808Z,5.83
2018-05-27T19:12:00.289Z,6.40
2018-05-27T19:14:29.464Z,5.00
2018-05-27T19:16:57.120Z,5.30
2018-05-27T19:19:24.789Z,5.90
2018-05-27T19:21:52.552Z,5.53
2018-05-27T19:24:20.522Z,6.07
2018-05-27T19:26:48.658Z,5.27
2018-05-27T19:29:16.358Z,5.43
2018-05-27T19:31:44.123Z,4.87
2018-05-27T19:34:11.888Z,4.50
2018-05-27T19:36:39.495Z,5.27
2018-05-27T19:39:07.314Z,5.33
2018-05-27T19:41:35.033Z,4.50
2018-05-27T19:44:02.844Z,5.20
2018-05-27T19:46:30.571Z,3.93
2018-05-27T19:48:58.373Z,4.53
2018-05-27T19:51:26.137Z,4.70
2018-05-27T19:53:53.903Z,4.50
2018-05-27T19:56:21.662Z,4.50
2018-05-27T19:58:49.430Z,4.30
2018-05-27T20:01:17.195Z,4.27
2018-05-27T20:03:44.911Z,4.77
2018-05-27T20:06:12.724Z,4.00
2018-05-27T20:08:40.385Z,4.60
2018-05-27T20:11:08.047Z,4.10
2018-05-27T20:13:35.914Z,4.30
2018-05-27T20:16:04.446Z,3.83
2018-05-27T20:18:32.264Z,3.87
2018-05-27T20:20:59.982Z,3.47
2018-05-27T20:23:27.792Z,4.17
2018-05-27T20:25:55.464Z,3.93
2018-05-27T20:28:23.321Z,4.37
2018-05-27T20:30:51.139Z,3.90
2018-05-27T20:33:18.846Z,3.70
2018-05-27T20:35:46.724Z,5.20
2018-05-27T20:38:14.425Z,4.20
2018-05-27T20:40:42.142Z,4.47
2018-05-27T20:43:09.909Z,4.57
2018-05-27T20:45:37.778Z,4.80
2018-05-27T20:48:05.492Z,4.73
2018-05-27T20:50:33.304Z,5.03
2018-05-27T20:53:00.967Z,4.67
2018-05-27T20:55:28.833Z,4.50
2018-05-27T20:57:56.495Z,4.13
2018-05-27T21:00:24.302Z,4.60
2018-05-27T21:02:52.028Z,4.60
2018-05-27T21:05:19.891Z,4.50
2018-05-27T21:07:47.609Z,4.87
2018-05-27T21:10:15.527Z,5.67
2018-05-27T21:12:43.390Z,4.40
2018-05-27T21:15:11.103Z,4.70
2018-05-27T21:17:38.919Z,4.83
2018-05-27T21:20:06.795Z,5.23
2018-05-27T21:22:34.546Z,4.63
2018-05-27T21:25:02.397Z,4.10
2018-05-27T21:27:30.234Z,4.20
2018-05-27T21:29:58.048Z,3.90
2018-05-27T21:32:25.768Z,4.23
2018-05-27T21:34:53.581Z,4.60
2018-05-27T21:37:21.343Z,4.53
2018-05-27T21:39:49.108Z,4.40
2018-05-27T21:42:16.873Z,5.07
2018-05-27T21:44:44.582Z,4.83
2018-05-27T21:47:12.402Z,4.77
2018-05-27T21:49:40.268Z,4.63
2018-05-27T21:52:07.982Z,5.93
2018-05-27T21:54:35.797Z,4.50
2018-05-27T21:57:03.562Z,4.30
2018-05-27T21:59:31.224Z,4.70
2018-05-27T22:01:58.950Z,5.50
2018-05-27T22:04:26.741Z,5.17
2018-05-27T22:06:54.518Z,5.50
2018-05-27T22:09:22.382Z,5.90
2018-05-27T22:11:50.148Z,5.00
2018-05-27T22:14:17.912Z,4.60
2018-05-27T22:16:45.574Z,5.17
2018-05-27T22:19:13.340Z,5.60
2018-05-27T22:21:41.104Z,5.37
2018-05-27T22:24:08.928Z,5.50
2018-05-27T22:26:36.736Z,5.40
2018-05-27T22:29:04.560Z,5.17
2018-05-27T22:31:32.367Z,5.73
2018-05-27T22:34:00.094Z,5.63
2018-05-27T22:36:27.837Z,5.80
2018-05-27T22:38:55.558Z,6.53
2018-05-27T22:41:23.326Z,5.90
2018-05-27T22:43:51.088Z,5.40
2018-05-27T22:46:18.852Z,6.40
2018-05-27T22:48:46.571Z,6.00
2018-05-27T22:51:14.383Z,5.73
2018-05-27T22:53:42.105Z,5.33
2018-05-27T22:56:09.911Z,5.90
2018-05-27T22:58:37.613Z,5.90
2018-05-27T23:01:05.443Z,6.00
2018-05-27T23:03:33.150Z,6.50
2018-05-27T23:06:00.858Z,5.90
2018-05-27T23:08:28.529Z,5.90
2018-05-27T23:10:56.249Z,6.10
2018-05-27T23:13:23.953Z,5.90
2018-05-27T23:15:52.026Z,5.27
2018-05-27T23:18:19.754Z,5.20
2018-05-27T23:20:47.555Z,5.90
2018-05-27T23:23:15.321Z,5.33
2018-05-27T23:25:43.085Z,5.77
2018-05-27T23:28:10.745Z,5.83
2018-05-27T23:30:38.409Z,5.33
2018-05-27T23:33:06.072Z,5.73
2018-05-27T23:35:33.938Z,6.23
2018-05-27T23:38:01.702Z,5.60
2018-05-27T23:40:29.364Z,6.57
2018-05-27T23:42:57.025Z,6.97
2018-05-27T23:45:24.710Z,6.60
2018-05-27T23:47:52.555Z,6.40
2018-05-27T23:50:20.423Z,6.80
2018-05-27T23:52:48.392Z,6.60
2018-05-27T23:55:16.203Z,6.50
2018-05-27T23:57:43.920Z,6.60
